createdAt,value
2019-03-29T00:02:09.541Z,63.17
2019-03-29T00:04:40.859Z,63.15
2019-03-29T00:07:12.348Z,62.50
2019-03-29T00:09:43.720Z,63.80
2019-03-29T00:12:15.093Z,63.85
2019-03-29T00:14:46.497Z,64.45
2019-03-29T00:17:18.095Z,62.45
2019-03-29T00:19:50.845Z,64.50
2019-03-29T00:22:22.185Z,63.40
2019-03-29T00:24:53.452Z,62.70
2019-03-29T00:27:24.738Z,62.10
2019-03-29T00:29:56.184Z,61.73
2019-03-29T00:32:27.584Z,59.80
2019-03-29T00:34:58.882Z,64.80
2019-03-29T00:37:30.163Z,64.00
2019-03-29T00:40:01.720Z,63.13
2019-03-29T00:42:33.081Z,61.33
2019-03-29T00:45:04.880Z,61.63
2019-03-29T00:47:36.188Z,62.35
2019-03-29T00:50:08.197Z,61.50
2019-03-29T00:52:39.547Z,61.42
2019-03-29T00:55:10.909Z,61.18
2019-03-29T00:57:42.194Z,61.83
2019-03-29T01:00:13.912Z,61.13
2019-03-29T01:02:45.552Z,59.67
2019-03-29T01:05:17.144Z,58.70
2019-03-29T01:07:48.569Z,56.58
2019-03-29T01:10:19.820Z,55.52
2019-03-29T01:12:51.616Z,53.40
2019-03-29T01:15:24.074Z,53.67
2019-03-29T01:17:55.700Z,54.33
2019-03-29T01:20:27.373Z,52.98
2019-03-29T01:22:58.807Z,54.97
2019-03-29T01:25:30.129Z,52.73
2019-03-29T01:28:01.817Z,53.97
2019-03-29T01:30:33.141Z,51.90
2019-03-29T01:33:04.817Z,52.15
2019-03-29T01:35:36.363Z,52.03
2019-03-29T01:38:20.801Z,51.37
2019-03-29T01:40:40.703Z,51.23
2019-03-29T01:43:11.990Z,49.73
2019-03-29T01:45:43.637Z,48.48
2019-03-29T01:48:15.895Z,50.28
2019-03-29T01:50:47.183Z,50.20
2019-03-29T01:53:18.428Z,49.18
2019-03-29T01:55:49.716Z,50.08
2019-03-29T01:58:21.030Z,49.75
2019-03-29T02:00:52.287Z,49.60
2019-03-29T02:03:23.547Z,47.80
2019-03-29T02:05:54.827Z,47.48
2019-03-29T02:08:35.563Z,48.08
2019-03-29T02:10:59.182Z,48.63
2019-03-29T02:13:30.464Z,48.23
2019-03-29T02:16:03.799Z,46.33
2019-03-29T02:18:35.313Z,45.98
2019-03-29T02:21:08.009Z,45.83
2019-03-29T02:23:40.276Z,46.20
2019-03-29T02:26:11.652Z,45.80
2019-03-29T02:28:42.921Z,46.00
2019-03-29T02:31:14.515Z,44.15
2019-03-29T02:33:48.467Z,45.92
2019-03-29T02:36:20.018Z,45.58
2019-03-29T02:38:55.765Z,45.03
2019-03-29T02:41:24.242Z,45.00
2019-03-29T02:43:55.573Z,44.13
2019-03-29T02:46:28.217Z,44.65
2019-03-29T02:48:59.492Z,43.83
2019-03-29T02:51:32.604Z,43.05
2019-03-29T02:54:04.806Z,45.17
2019-03-29T02:56:36.071Z,44.10
2019-03-29T02:59:07.346Z,44.60
2019-03-29T03:01:38.700Z,43.95
2019-03-29T03:04:09.991Z,42.67
2019-03-29T03:06:41.318Z,42.43
2019-03-29T03:09:14.774Z,42.65
2019-03-29T03:11:45.971Z,43.27
2019-03-29T03:14:17.555Z,43.85
2019-03-29T03:16:48.832Z,42.83
2019-03-29T03:19:20.113Z,44.08
2019-03-29T03:21:51.357Z,43.58
2019-03-29T03:24:22.627Z,44.60
2019-03-29T03:26:53.921Z,43.98
2019-03-29T03:29:25.892Z,43.33
2019-03-29T03:31:57.201Z,44.40
2019-03-29T03:34:28.542Z,43.63
2019-03-29T03:37:00.379Z,43.50
2019-03-29T03:39:32.739Z,42.50
2019-03-29T03:42:04.125Z,41.63
2019-03-29T03:44:35.488Z,41.48
2019-03-29T03:47:07.009Z,41.40
2019-03-29T03:49:38.371Z,41.63
2019-03-29T03:52:09.688Z,41.70
2019-03-29T03:54:41.273Z,40.80
2019-03-29T03:57:13.123Z,39.97
2019-03-29T03:59:44.585Z,39.37
2019-03-29T04:02:15.946Z,40.55
2019-03-29T04:04:47.270Z,38.78
2019-03-29T04:07:18.663Z,40.65
2019-03-29T04:09:50.785Z,43.60
2019-03-29T04:12:22.136Z,41.90
2019-03-29T04:14:54.401Z,41.63
2019-03-29T04:17:26.053Z,41.98
2019-03-29T04:19:57.352Z,40.98
2019-03-29T04:22:29.249Z,39.38
2019-03-29T04:25:00.539Z,39.18
2019-03-29T04:27:31.818Z,39.25
2019-03-29T04:30:03.434Z,38.70
2019-03-29T04:32:34.777Z,39.80
2019-03-29T04:35:06.314Z,40.80
2019-03-29T04:37:37.685Z,40.75
2019-03-29T04:40:09.568Z,40.30
2019-03-29T04:42:41.196Z,39.53
2019-03-29T04:45:12.651Z,41.20
2019-03-29T04:47:44.281Z,40.55
2019-03-29T04:50:15.992Z,39.67
2019-03-29T04:52:47.250Z,40.55
2019-03-29T04:55:18.880Z,39.77
2019-03-29T04:57:50.272Z,40.35
2019-03-29T05:00:21.833Z,40.85
2019-03-29T05:02:53.199Z,40.45
2019-03-29T05:05:24.570Z,40.75
2019-03-29T05:07:55.809Z,42.23
2019-03-29T05:10:27.167Z,40.92
2019-03-29T05:12:59.742Z,40.92
2019-03-29T05:15:31.161Z,41.00
2019-03-29T05:18:02.475Z,39.53
2019-03-29T05:20:33.733Z,40.23
2019-03-29T05:23:06.433Z,39.88
2019-03-29T05:25:37.769Z,39.63
2019-03-29T05:28:09.036Z,39.08
2019-03-29T05:30:40.308Z,38.15
2019-03-29T05:33:11.595Z,37.83
2019-03-29T05:35:42.869Z,38.67
2019-03-29T05:38:14.114Z,38.60
2019-03-29T05:40:45.417Z,37.75
2019-03-29T05:43:16.666Z,36.70
2019-03-29T05:45:47.940Z,36.25
2019-03-29T05:48:19.197Z,35.08
2019-03-29T05:50:50.768Z,33.53
2019-03-29T05:53:22.034Z,34.23
2019-03-29T05:55:53.301Z,34.30
2019-03-29T05:58:24.575Z,32.23
2019-03-29T06:00:56.397Z,31.50
2019-03-29T06:03:27.907Z,30.95
2019-03-29T06:06:00.107Z,30.72
2019-03-29T06:08:33.823Z,27.59
2019-03-29T06:11:05.116Z,28.02
2019-03-29T06:13:36.418Z,27.42
2019-03-29T06:16:07.688Z,26.83
2019-03-29T06:18:39.279Z,26.02
2019-03-29T06:21:11.110Z,25.50
2019-03-29T06:23:42.379Z,24.37
2019-03-29T06:26:13.952Z,26.05
2019-03-29T06:28:45.236Z,25.85
2019-03-29T06:31:16.988Z,25.12
2019-03-29T06:33:48.242Z,25.23
2019-03-29T06:36:22.477Z,23.55
2019-03-29T06:38:56.666Z,24.20
2019-03-29T06:41:27.937Z,23.27
2019-03-29T06:43:59.166Z,22.80
2019-03-29T06:46:30.574Z,21.55
2019-03-29T06:49:01.904Z,21.48
2019-03-29T06:51:33.174Z,21.17
2019-03-29T06:54:04.714Z,21.23
2019-03-29T06:56:36.049Z,21.52
2019-03-29T06:59:07.608Z,20.52
2019-03-29T07:01:38.959Z,19.03
2019-03-29T07:04:10.243Z,18.73
2019-03-29T07:06:41.743Z,17.95
2019-03-29T07:09:13.095Z,17.77
2019-03-29T07:11:44.504Z,17.67
2019-03-29T07:14:16.230Z,19.02
2019-03-29T07:16:47.615Z,17.30
2019-03-29T07:19:19.062Z,16.73
2019-03-29T07:21:50.372Z,15.10
2019-03-29T07:24:21.637Z,13.88
2019-03-29T07:26:52.917Z,14.03
2019-03-29T07:29:24.462Z,13.20
2019-03-29T07:31:55.759Z,13.25
2019-03-29T07:34:27.026Z,13.30
2019-03-29T07:36:58.570Z,12.33
2019-03-29T07:39:30.210Z,12.73
2019-03-29T07:42:01.962Z,12.15
2019-03-29T07:44:33.501Z,13.13
2019-03-29T07:47:04.785Z,12.10
2019-03-29T07:49:36.104Z,12.10
2019-03-29T07:52:07.725Z,12.33
2019-03-29T07:54:39.021Z,11.50
2019-03-29T07:57:10.286Z,11.22
2019-03-29T07:59:41.569Z,11.78
2019-03-29T08:02:12.944Z,11.93
2019-03-29T08:04:46.534Z,11.40
2019-03-29T08:07:27.156Z,11.30
2019-03-29T08:09:51.206Z,10.90
2019-03-29T08:12:22.594Z,10.50
2019-03-29T08:14:54.133Z,11.45
2019-03-29T08:17:25.426Z,11.40
2019-03-29T08:20:24.434Z,11.45
2019-03-29T08:22:29.703Z,11.53
2019-03-29T08:25:01.330Z,11.57
2019-03-29T08:27:32.630Z,11.28
2019-03-29T08:30:04.382Z,11.78
2019-03-29T08:32:35.994Z,12.98
2019-03-29T08:35:07.484Z,11.12
2019-03-29T08:37:38.759Z,13.00
2019-03-29T08:40:11.682Z,12.77
2019-03-29T08:42:42.983Z,12.50
2019-03-29T08:45:14.431Z,12.07
2019-03-29T08:47:45.962Z,13.03
2019-03-29T08:50:17.195Z,11.30
2019-03-29T08:52:48.591Z,11.53
2019-03-29T08:55:19.854Z,11.53
2019-03-29T08:57:51.415Z,12.37
2019-03-29T09:00:32.691Z,15.18
2019-03-29T09:03:04.577Z,14.40
2019-03-29T09:05:39.054Z,12.30
2019-03-29T09:08:09.385Z,13.05
2019-03-29T09:10:42.594Z,12.23
2019-03-29T09:13:13.908Z,12.80
2019-03-29T09:15:45.309Z,12.90
2019-03-29T09:18:16.703Z,12.60
2019-03-29T09:20:48.978Z,16.45
2019-03-29T09:23:20.351Z,16.00
2019-03-29T09:25:52.066Z,14.13
2019-03-29T09:28:23.420Z,15.83
2019-03-29T09:30:56.642Z,12.60
2019-03-29T09:33:27.743Z,13.43
2019-03-29T09:35:59.046Z,13.65
2019-03-29T09:38:31.063Z,13.18
2019-03-29T09:41:02.408Z,12.37
2019-03-29T09:43:33.713Z,12.23
2019-03-29T09:46:05.326Z,12.20
2019-03-29T09:48:36.627Z,12.07
2019-03-29T09:51:08.215Z,11.78
2019-03-29T09:53:41.172Z,11.78
2019-03-29T09:56:12.516Z,11.90
2019-03-29T09:58:45.193Z,11.10
2019-03-29T10:01:20.500Z,11.53
2019-03-29T10:03:49.719Z,11.53
2019-03-29T10:06:20.963Z,10.53
2019-03-29T10:08:53.515Z,11.78
2019-03-29T10:11:25.901Z,11.78
2019-03-29T10:13:57.802Z,11.68
2019-03-29T10:16:29.079Z,11.25
2019-03-29T10:19:00.706Z,11.43
2019-03-29T10:21:34.088Z,10.48
2019-03-29T10:24:05.134Z,9.33
2019-03-29T10:26:36.497Z,9.65
2019-03-29T10:29:07.757Z,9.83
2019-03-29T10:31:39.105Z,9.30
2019-03-29T10:34:10.639Z,9.30
2019-03-29T10:36:43.221Z,7.97
2019-03-29T10:39:15.490Z,9.08
2019-03-29T10:41:46.765Z,7.67
2019-03-29T10:44:18.019Z,7.90
2019-03-29T10:46:49.287Z,7.83
2019-03-29T10:49:20.571Z,8.90
2019-03-29T10:51:51.807Z,7.72
2019-03-29T10:54:23.144Z,8.00
2019-03-29T10:56:54.419Z,7.03
2019-03-29T10:59:27.691Z,7.40
2019-03-29T11:01:59.292Z,8.10
2019-03-29T11:04:32.111Z,6.92
2019-03-29T11:07:03.765Z,6.35
2019-03-29T11:09:36.978Z,7.05
2019-03-29T11:12:08.311Z,6.70
2019-03-29T11:14:39.847Z,6.33
2019-03-29T11:17:11.414Z,6.53
2019-03-29T11:19:42.706Z,6.60
2019-03-29T11:22:14.369Z,6.05
2019-03-29T11:24:45.779Z,7.53
2019-03-29T11:27:17.078Z,6.47
2019-03-29T11:29:48.539Z,7.42
2019-03-29T11:32:19.903Z,6.50
2019-03-29T11:34:51.252Z,6.70
2019-03-29T11:37:22.618Z,7.20
2019-03-29T11:39:53.987Z,6.67
2019-03-29T11:42:25.614Z,6.12
2019-03-29T11:44:56.989Z,6.12
2019-03-29T11:47:29.348Z,6.08
2019-03-29T11:50:00.653Z,7.00
2019-03-29T11:52:33.845Z,6.33
2019-03-29T11:55:05.765Z,7.47
2019-03-29T11:57:37.270Z,7.50
2019-03-29T12:00:09.858Z,6.28
2019-03-29T12:02:41.578Z,7.05
2019-03-29T12:05:13.036Z,7.80
2019-03-29T12:07:44.376Z,5.90
2019-03-29T12:10:16.384Z,5.04
2019-03-29T12:12:47.705Z,5.40
2019-03-29T12:15:19.386Z,5.20
2019-03-29T12:17:50.685Z,5.87
2019-03-29T12:20:21.979Z,5.67
2019-03-29T12:22:53.301Z,5.78
2019-03-29T12:25:24.783Z,5.92
2019-03-29T12:27:56.085Z,5.85
2019-03-29T12:30:31.829Z,5.42
2019-03-29T12:33:00.744Z,5.50
2019-03-29T12:35:32.317Z,5.10
2019-03-29T12:38:03.781Z,4.50
2019-03-29T12:40:35.168Z,4.45
2019-03-29T12:43:06.774Z,4.25
2019-03-29T12:45:38.045Z,4.00
2019-03-29T12:48:09.343Z,4.53
2019-03-29T12:50:40.668Z,4.40
2019-03-29T12:53:12.096Z,4.20
2019-03-29T12:55:43.505Z,4.20
2019-03-29T12:58:14.811Z,3.50
2019-03-29T13:00:46.228Z,3.70
2019-03-29T13:03:17.576Z,3.80
2019-03-29T13:05:48.858Z,3.70
2019-03-29T13:08:20.472Z,4.10
2019-03-29T13:10:52.004Z,4.58
2019-03-29T13:13:23.293Z,4.65
2019-03-29T13:15:54.574Z,4.37
2019-03-29T13:18:25.849Z,4.10
2019-03-29T13:20:57.309Z,4.22
2019-03-29T13:23:28.890Z,4.10
2019-03-29T13:26:00.253Z,4.10
2019-03-29T13:28:31.593Z,3.77
2019-03-29T13:31:02.863Z,3.30
2019-03-29T13:33:34.175Z,3.67
2019-03-29T13:36:06.314Z,4.42
2019-03-29T13:38:37.741Z,4.10
2019-03-29T13:41:09.103Z,4.22
2019-03-29T13:43:40.343Z,4.30
2019-03-29T13:46:11.605Z,3.97
2019-03-29T13:48:43.206Z,4.30
2019-03-29T13:51:14.777Z,4.50
2019-03-29T13:53:46.038Z,3.80
2019-03-29T13:56:17.725Z,4.03
2019-03-29T13:58:49.008Z,3.60
2019-03-29T14:01:20.601Z,4.15
2019-03-29T14:03:53.144Z,4.30
2019-03-29T14:06:24.612Z,4.10
2019-03-29T14:08:55.866Z,4.22
2019-03-29T14:11:27.206Z,3.10
2019-03-29T14:13:58.480Z,3.17
2019-03-29T14:16:30.162Z,3.77
2019-03-29T14:19:01.499Z,4.08
2019-03-29T14:21:32.805Z,3.35
2019-03-29T14:24:04.133Z,3.20
2019-03-29T14:26:35.381Z,3.30
2019-03-29T14:29:06.666Z,2.72
2019-03-29T14:31:38.217Z,2.77
2019-03-29T14:34:09.555Z,2.70
2019-03-29T14:36:40.800Z,2.77
2019-03-29T14:39:12.142Z,2.33
2019-03-29T14:41:43.423Z,2.00
2019-03-29T14:44:14.667Z,2.70
2019-03-29T14:46:45.956Z,2.87
2019-03-29T14:49:17.231Z,2.37
2019-03-29T14:51:48.485Z,3.05
2019-03-29T14:54:19.743Z,2.40
2019-03-29T14:56:51.086Z,2.80
2019-03-29T14:59:22.343Z,2.50
2019-03-29T15:01:53.647Z,2.10
2019-03-29T15:04:24.926Z,2.52
2019-03-29T15:06:56.426Z,1.80
2019-03-29T15:09:27.766Z,1.70
2019-03-29T15:12:10.371Z,2.52
2019-03-29T15:14:41.613Z,1.90
2019-03-29T15:17:12.889Z,3.10
2019-03-29T15:19:44.237Z,2.37
2019-03-29T15:22:15.531Z,2.20
2019-03-29T15:24:46.841Z,2.40
2019-03-29T15:27:18.118Z,2.37
2019-03-29T15:29:50.237Z,1.70
2019-03-29T15:32:21.525Z,2.40
2019-03-29T15:34:52.770Z,2.40
2019-03-29T15:37:24.185Z,2.02
2019-03-29T15:39:55.477Z,2.10
2019-03-29T15:42:26.756Z,2.10
2019-03-29T15:44:58.171Z,2.10
2019-03-29T15:47:29.485Z,2.30
2019-03-29T15:50:01.845Z,1.90
2019-03-29T15:52:33.790Z,2.08
2019-03-29T15:55:05.375Z,1.80
2019-03-29T15:57:36.729Z,2.70
2019-03-29T16:00:08.678Z,2.27
2019-03-29T16:02:40.294Z,2.45
2019-03-29T16:05:11.707Z,1.70
2019-03-29T16:07:43.054Z,2.05
2019-03-29T16:10:14.316Z,2.22
2019-03-29T16:12:46.821Z,1.90
2019-03-29T16:15:18.219Z,2.35
2019-03-29T16:17:49.551Z,1.75
2019-03-29T16:20:20.814Z,2.42
2019-03-29T16:22:52.228Z,1.90
2019-03-29T16:25:23.477Z,1.77
2019-03-29T16:27:55.461Z,1.70
2019-03-29T16:30:27.147Z,2.33
2019-03-29T16:32:58.385Z,2.50
2019-03-29T16:35:29.641Z,2.52
2019-03-29T16:38:00.899Z,2.55
2019-03-29T16:40:32.170Z,2.33
2019-03-29T16:43:03.842Z,2.83
2019-03-29T16:45:47.148Z,2.72
2019-03-29T16:48:08.062Z,2.20
2019-03-29T16:50:39.342Z,2.22
2019-03-29T16:53:11.091Z,2.30
2019-03-29T16:55:42.427Z,2.47
2019-03-29T16:58:13.701Z,2.05
2019-03-29T17:00:45.154Z,1.77
2019-03-29T17:03:16.764Z,2.00
2019-03-29T17:05:48.403Z,2.10
2019-03-29T17:08:20.034Z,1.85
2019-03-29T17:10:51.314Z,1.90
2019-03-29T17:13:22.571Z,3.40
2019-03-29T17:16:01.626Z,3.13
2019-03-29T17:18:29.579Z,2.60
2019-03-29T17:21:00.949Z,2.67
2019-03-29T17:23:32.375Z,2.40
2019-03-29T17:26:03.900Z,2.52
2019-03-29T17:28:35.149Z,2.13
2019-03-29T17:31:07.314Z,2.30
2019-03-29T17:33:38.575Z,2.80
2019-03-29T17:36:09.847Z,2.90
2019-03-29T17:38:41.125Z,2.80
2019-03-29T17:41:12.382Z,2.58
2019-03-29T17:43:44.064Z,2.85
2019-03-29T17:46:16.892Z,3.17
2019-03-29T17:48:48.585Z,2.27
2019-03-29T17:51:20.825Z,2.00
2019-03-29T17:53:52.099Z,2.37
2019-03-29T17:56:23.353Z,2.30
2019-03-29T17:58:54.608Z,2.20
2019-03-29T18:01:26.235Z,3.50
2019-03-29T18:03:57.533Z,4.78
2019-03-29T18:06:28.917Z,4.70
2019-03-29T18:09:00.567Z,9.93
2019-03-29T18:11:33.458Z,8.87
2019-03-29T18:14:04.889Z,2.85
2019-03-29T18:16:36.134Z,5.15
2019-03-29T18:19:07.389Z,4.20
2019-03-29T18:21:38.967Z,2.67
2019-03-29T18:24:10.556Z,3.00
2019-03-29T18:26:41.819Z,2.72
2019-03-29T18:29:13.107Z,3.10
2019-03-29T18:31:45.103Z,2.77
2019-03-29T18:34:16.861Z,3.35
2019-03-29T18:36:48.791Z,4.15
2019-03-29T18:39:21.325Z,3.70
2019-03-29T18:41:52.579Z,3.45
2019-03-29T18:44:23.886Z,2.80
2019-03-29T18:46:56.529Z,2.87
2019-03-29T18:49:27.882Z,3.02
2019-03-29T18:51:59.622Z,2.87
2019-03-29T18:54:30.988Z,3.35
2019-03-29T18:57:02.683Z,3.57
2019-03-29T18:59:34.030Z,3.58
2019-03-29T19:02:05.367Z,3.40
2019-03-29T19:04:36.944Z,3.63
2019-03-29T19:07:08.534Z,3.55
2019-03-29T19:09:39.875Z,3.60
2019-03-29T19:12:11.559Z,3.50
2019-03-29T19:14:45.754Z,3.30
2019-03-29T19:17:17.097Z,3.70
2019-03-29T19:19:49.812Z,3.45
2019-03-29T19:22:21.113Z,3.83
2019-03-29T19:24:52.465Z,4.12
2019-03-29T19:27:24.113Z,4.08
2019-03-29T19:29:56.501Z,3.73
2019-03-29T19:32:28.107Z,4.10
2019-03-29T19:34:59.367Z,4.10
2019-03-29T19:37:30.617Z,4.30
2019-03-29T19:40:02.301Z,4.77
2019-03-29T19:42:34.596Z,4.87
2019-03-29T19:45:06.381Z,4.92
2019-03-29T19:47:38.142Z,5.53
2019-03-29T19:50:09.837Z,5.30
2019-03-29T19:52:41.196Z,5.80
2019-03-29T19:55:13.635Z,5.72
2019-03-29T19:57:46.528Z,5.80
2019-03-29T20:00:18.708Z,6.20
2019-03-29T20:02:50.945Z,5.78
2019-03-29T20:05:27.060Z,6.05
2019-03-29T20:07:58.649Z,5.62
2019-03-29T20:10:42.330Z,5.53
2019-03-29T20:13:13.687Z,5.35
2019-03-29T20:15:45.000Z,5.50
2019-03-29T20:18:16.295Z,5.53
2019-03-29T20:20:47.618Z,5.65
2019-03-29T20:23:18.942Z,6.40
2019-03-29T20:25:50.234Z,6.25
2019-03-29T20:28:21.503Z,7.35
2019-03-29T20:30:52.819Z,7.50
2019-03-29T20:33:24.630Z,7.92
2019-03-29T20:35:55.927Z,9.13
2019-03-29T20:38:27.520Z,6.60
2019-03-29T20:41:00.048Z,8.33
2019-03-29T20:43:31.313Z,7.92
2019-03-29T20:46:02.909Z,7.47
2019-03-29T20:48:34.216Z,7.45
2019-03-29T20:51:05.579Z,6.90
2019-03-29T20:53:36.835Z,8.17
2019-03-29T20:56:08.113Z,7.85
2019-03-29T20:58:39.443Z,7.65
2019-03-29T21:01:10.732Z,7.97
2019-03-29T21:03:41.976Z,7.60
2019-03-29T21:06:13.395Z,8.35
2019-03-29T21:08:44.651Z,7.62
2019-03-29T21:11:15.931Z,7.72
2019-03-29T21:13:47.393Z,8.25
2019-03-29T21:16:19.125Z,8.03
2019-03-29T21:18:50.557Z,7.92
2019-03-29T21:21:21.834Z,7.28
2019-03-29T21:23:53.383Z,6.80
2019-03-29T21:26:25.764Z,5.80
2019-03-29T21:28:56.988Z,6.33
2019-03-29T21:31:28.264Z,5.37
2019-03-29T21:33:59.534Z,5.00
2019-03-29T21:36:30.939Z,4.53
2019-03-29T21:39:02.284Z,4.95
2019-03-29T21:41:34.826Z,4.97
2019-03-29T21:44:06.366Z,4.90
2019-03-29T21:46:37.626Z,5.20
2019-03-29T21:49:09.191Z,5.97
2019-03-29T21:51:40.767Z,5.30
2019-03-29T21:54:12.030Z,5.53
2019-03-29T21:56:43.285Z,5.20
2019-03-29T21:59:14.610Z,5.45
2019-03-29T22:01:45.908Z,5.67
2019-03-29T22:04:17.165Z,5.62
2019-03-29T22:06:48.440Z,5.80
2019-03-29T22:09:20.060Z,5.10
2019-03-29T22:11:51.419Z,5.12
2019-03-29T22:14:22.698Z,5.33
2019-03-29T22:16:54.059Z,4.97
2019-03-29T22:19:25.691Z,4.80
2019-03-29T22:21:56.935Z,4.90
2019-03-29T22:24:28.412Z,5.75
2019-03-29T22:26:59.985Z,5.30
2019-03-29T22:29:31.255Z,5.72
2019-03-29T22:32:02.669Z,6.62
2019-03-29T22:34:33.953Z,7.65
2019-03-29T22:37:05.299Z,7.37
2019-03-29T22:39:36.929Z,7.37
2019-03-29T22:42:08.433Z,6.87
2019-03-29T22:44:40.175Z,6.53
2019-03-29T22:47:11.440Z,6.20
2019-03-29T22:49:42.820Z,5.97
2019-03-29T22:52:15.545Z,5.92
2019-03-29T22:54:47.291Z,6.20
2019-03-29T22:57:18.597Z,6.17
2019-03-29T22:59:49.914Z,6.12
2019-03-29T23:02:21.273Z,6.10
2019-03-29T23:04:52.529Z,6.47
2019-03-29T23:07:23.876Z,5.97
2019-03-29T23:09:55.137Z,6.22
2019-03-29T23:12:26.719Z,6.05
2019-03-29T23:14:58.026Z,6.12
2019-03-29T23:17:29.270Z,5.87
2019-03-29T23:20:00.910Z,6.47
2019-03-29T23:22:33.235Z,6.85
2019-03-29T23:25:04.932Z,8.37
2019-03-29T23:27:37.013Z,7.87
2019-03-29T23:30:10.075Z,9.15
2019-03-29T23:32:41.609Z,10.15
2019-03-29T23:35:13.146Z,10.75
2019-03-29T23:37:44.416Z,11.08
2019-03-29T23:40:16.051Z,11.00
2019-03-29T23:42:47.623Z,9.80
2019-03-29T23:45:19.513Z,9.03
2019-03-29T23:47:51.055Z,8.45
2019-03-29T23:50:22.583Z,8.68
2019-03-29T23:52:53.847Z,8.00
2019-03-29T23:55:25.146Z,7.67
2019-03-29T23:57:56.744Z,7.80
